Sacul, Texas
Current Conditions -  °F | °C
As of 8:55 PM on Wednesday 22 Oct 2014 (Local Time) from KJSO Reporting Station
Clear Clear  
Wind Chill: 66°   Ceiling: Unl
Heat Index: 66°   Visibility: 10mi
Dew Point: 54°   Wind: 3mph
Humidity: 64%   Direction: 60°ENE
Pressure: 30.14"   Gusts: NA
Location:  31.82°N, 94.92°W
Report Text: KJSO 230155Z AUTO 06003KT 10SM CLR 18/12 A3014 RMK AO2 T01910121
Loading
Personal Weather Stations






























Interactive Weather Map New forecast layout! Learn more

10-Day Weather Forecast

Advertisements
Track Severe Weather on mobile